Air Navigation Services of Czech Republic
Airport: LKPR Updated:  18.07.2018 18:00:07  UTC
 METAR LKPR 18.07. 18:00 ...
METAR LKPR 181800Z 34013KT CAVOK 25/10 Q1015 NOSIG RMK REG QNH 1009=
 TAF LKPR 18.07. 17:00 ...
TAF LKPR 181700Z 1818/2000 32014KT CAVOK      TEMPO 1818/1819 35016G28KT      BECMG 1819/1821 29008KT      BECMG 1907/1909 33012KT 9999 SCT040      TEMPO 1909/1918 01014G26KT      BECMG 1919/1922 VRB02KT=